Disclaimer

Please do not use the information listed here in-flight or in-navigation, as they are not provided to us by the airports but are provided by volunteers, so they might be outdated.

Search


Regions


Airport information page

Radio informations:
Brisbane Center - 127.1 MHz
Common traffic adv. frequency (CTAF) - 126.7 MHz

Airport informations:
Latitude: 31° 19' 57.00" S
Longitude: 149° 16' 02.00" E
Elevation: 2117 feet - 645 meters
Operating hours: N/A
Operating agency: Civil government, landing fees and diplomatic clearance may be required
Timezone: UTC+10(+11DT)
Fuel: 100/130 MIL Spec, low lead, aviation gasoline (BLUE)

Runway information:
01/19 - 2129 x 98 feet< - >649 x 30 meters
11/29 - 4987 x 98 feet< - >1520 x 30 meters

Recent METARs:
YCBB 181600Z AUTO 11007KT 9999 // NCD 22/17 Q1012
YCBB 181600Z AUTO 11007KT 9999 // NCD 22/17 Q1012
YCBB 181700Z AUTO 07006KT 9999 // NCD 21/17 Q1013

Airport on the map: